createdAt,value
2023-02-22T00:02:52.767Z,99126.54
2023-02-22T00:05:31.840Z,99134.07
2023-02-22T00:08:20.582Z,99131.60
2023-02-22T00:10:52.038Z,99134.70
2023-02-22T00:13:23.182Z,99137.34
2023-02-22T00:16:01.064Z,99138.09
2023-02-22T00:18:36.525Z,99139.60
2023-02-22T00:21:12.920Z,99144.66
2023-02-22T00:23:58.657Z,99151.70
2023-02-22T00:26:36.847Z,99154.19
2023-02-22T00:29:15.220Z,99163.15
2023-02-22T00:31:49.897Z,99164.39
2023-02-22T00:34:36.657Z,99168.57
2023-02-22T00:37:31.970Z,99168.25
2023-02-22T00:40:26.590Z,99172.47
2023-02-22T00:43:01.598Z,99182.80
2023-02-22T00:45:32.349Z,99191.31
2023-02-22T00:48:11.878Z,99200.70
2023-02-22T00:50:48.756Z,99205.60
2023-02-22T00:53:17.384Z,99212.17
2023-02-22T00:56:57.638Z,99221.50
2023-02-22T00:59:53.472Z,99226.08
2023-02-22T01:02:22.387Z,99235.80
2023-02-22T01:05:11.121Z,99233.55
2023-02-22T01:07:45.823Z,99242.58
2023-02-22T01:10:25.019Z,99247.33
2023-02-22T01:13:05.097Z,99252.95
2023-02-22T01:15:57.004Z,99261.52
2023-02-22T01:18:27.026Z,99274.09
2023-02-22T01:21:20.171Z,99277.98
2023-02-22T01:23:49.796Z,99286.79
2023-02-22T01:26:21.671Z,99284.77
2023-02-22T01:29:24.906Z,99289.61
2023-02-22T01:31:58.715Z,99291.34
2023-02-22T01:34:27.834Z,99295.85
2023-02-22T01:37:06.968Z,99305.29
2023-02-22T01:39:41.346Z,99304.95
2023-02-22T01:42:29.631Z,99308.44
2023-02-22T01:45:43.914Z,99310.86
2023-02-22T01:48:51.904Z,99318.41
2023-02-22T01:51:49.180Z,99324.67
2023-02-22T01:54:34.497Z,99325.64
2023-02-22T01:57:39.358Z,99333.56
2023-02-22T02:00:21.633Z,99335.80
2023-02-22T02:03:28.029Z,99338.36
2023-02-22T02:06:17.997Z,99342.98
2023-02-22T02:09:22.188Z,99349.65
2023-02-22T02:12:11.912Z,99354.64
2023-02-22T02:14:53.520Z,99355.88
2023-02-22T02:17:45.154Z,99363.08
2023-02-22T02:21:51.428Z,99365.36
2023-02-22T02:24:43.317Z,99366.18
2023-02-22T02:27:54.420Z,99374.79
2023-02-22T02:31:00.370Z,99379.20
2023-02-22T02:34:31.894Z,99382.04
2023-02-22T02:37:20.933Z,99385.14
2023-02-22T02:40:18.140Z,99389.16
2023-02-22T02:43:18.288Z,99391.19
2023-02-22T02:46:32.846Z,99399.23
2023-02-22T02:49:45.426Z,99405.15
2023-02-22T02:52:16.337Z,99411.89
2023-02-22T02:54:50.629Z,99420.38
2023-02-22T02:57:41.159Z,99416.34
2023-02-22T03:00:39.912Z,99425.06
2023-02-22T03:04:07.188Z,99432.83
2023-02-22T03:06:53.778Z,99440.41
2023-02-22T03:09:48.772Z,99451.55
2023-02-22T03:12:51.974Z,99454.81
2023-02-22T03:15:38.073Z,99462.73
2023-02-22T03:18:18.940Z,99467.46
2023-02-22T03:20:54.204Z,99470.08
2023-02-22T03:23:32.707Z,99476.84
2023-02-22T03:26:13.371Z,99483.14
2023-02-22T03:28:45.698Z,99488.84
2023-02-22T03:31:52.649Z,99497.20
2023-02-22T03:34:46.152Z,99499.15
2023-02-22T03:37:23.288Z,99498.60
2023-02-22T03:39:56.784Z,99504.84
2023-02-22T03:42:35.534Z,99509.03
2023-02-22T03:45:29.276Z,99507.61
2023-02-22T03:48:38.004Z,99517.17
2023-02-22T03:51:19.036Z,99518.48
2023-02-22T03:53:52.726Z,99521.94
2023-02-22T03:56:39.870Z,99525.71
2023-02-22T03:59:35.275Z,99527.52
2023-02-22T04:02:35.676Z,99530.16
2023-02-22T04:05:33.925Z,99527.28
2023-02-22T04:08:06.772Z,99532.39
2023-02-22T04:11:03.936Z,99538.20
2023-02-22T04:14:03.290Z,99544.46
2023-02-22T04:18:12.612Z,99553.36
2023-02-22T04:23:52.557Z,99560.54
2023-02-22T04:26:38.733Z,99562.79
2023-02-22T04:29:09.208Z,99564.73
2023-02-22T04:31:41.220Z,99570.14
2023-02-22T04:34:13.651Z,99575.10
2023-02-22T04:36:53.352Z,99578.00
2023-02-22T04:39:27.630Z,99580.55
2023-02-22T04:42:23.279Z,99589.44
2023-02-22T04:45:43.248Z,99594.33
2023-02-22T04:48:24.751Z,99601.20
2023-02-22T04:51:13.789Z,99603.23
2023-02-22T04:54:16.553Z,99606.81
2023-02-22T04:56:50.769Z,99616.36
2023-02-22T04:59:32.980Z,99624.52
2023-02-22T05:02:55.783Z,99627.50
2023-02-22T05:05:28.223Z,99634.54
2023-02-22T05:08:10.924Z,99635.06
2023-02-22T05:10:43.193Z,99639.38
2023-02-22T05:13:58.049Z,99645.45
2023-02-22T05:17:27.590Z,99654.66
2023-02-22T05:20:10.522Z,99663.34
2023-02-22T05:22:53.508Z,99670.70
2023-02-22T05:25:39.956Z,99674.38
2023-02-22T05:28:55.393Z,99683.14
2023-02-22T05:31:42.286Z,99690.13
2023-02-22T05:34:25.451Z,99699.66
2023-02-22T05:37:05.288Z,99700.30
2023-02-22T05:39:37.716Z,99704.66
2023-02-22T05:42:42.187Z,99711.40
2023-02-22T05:49:21.046Z,99729.30
2023-02-22T05:51:49.722Z,99737.31
2023-02-22T05:54:23.438Z,99742.30
2023-02-22T05:56:57.440Z,99750.33
2023-02-22T05:59:30.637Z,99746.52
2023-02-22T06:02:09.838Z,99754.61
2023-02-22T06:04:48.279Z,99759.70
2023-02-22T06:07:17.377Z,99765.45
2023-02-22T06:09:47.797Z,99775.00
2023-02-22T06:12:24.335Z,99775.11
2023-02-22T06:15:35.455Z,99781.66
2023-02-22T06:18:06.861Z,99784.98
2023-02-22T06:20:38.827Z,99784.15
2023-02-22T06:23:07.964Z,99786.88
2023-02-22T06:29:24.308Z,99790.05
2023-02-22T06:31:58.848Z,99795.44
2023-02-22T06:35:33.309Z,99797.11
2023-02-22T06:38:23.806Z,99798.23
2023-02-22T06:41:01.129Z,99800.66
2023-02-22T06:43:30.933Z,99801.84
2023-02-22T06:47:00.139Z,99801.22
2023-02-22T06:50:30.398Z,99802.70
2023-02-22T06:53:15.324Z,99810.91
2023-02-22T06:55:48.322Z,99815.27
2023-02-22T06:58:28.400Z,99817.43
2023-02-22T07:01:05.324Z,99817.30
2023-02-22T07:03:49.667Z,99822.98
2023-02-22T07:06:24.051Z,99828.00
2023-02-22T07:09:24.550Z,99831.68
2023-02-22T07:12:05.770Z,99841.45
2023-02-22T07:15:24.391Z,99848.27
2023-02-22T07:18:32.301Z,99852.14
2023-02-22T07:21:08.436Z,99847.59
2023-02-22T07:24:05.180Z,99846.63
2023-02-22T07:26:54.360Z,99851.84
2023-02-22T07:29:43.196Z,99852.73
2023-02-22T07:32:21.014Z,99855.57
2023-02-22T07:35:23.247Z,99869.36
2023-02-22T07:38:20.062Z,99871.38
2023-02-22T07:41:23.294Z,99874.73
2023-02-22T07:44:04.162Z,99877.30
2023-02-22T07:47:36.708Z,99881.05
2023-02-22T07:50:14.558Z,99885.09
2023-02-22T07:53:24.411Z,99885.41
2023-02-22T07:56:16.842Z,99886.39
2023-02-22T07:59:16.287Z,99891.42
2023-02-22T08:02:23.226Z,99902.19
2023-02-22T08:05:47.122Z,99902.84
2023-02-22T08:09:20.417Z,99902.10
2023-02-22T08:12:44.503Z,99906.20
2023-02-22T08:15:57.560Z,99904.52
2023-02-22T08:18:53.997Z,99902.81
2023-02-22T08:22:01.563Z,99907.85
2023-02-22T08:24:55.864Z,99912.97
2023-02-22T08:28:24.437Z,99917.63
2023-02-22T08:31:29.305Z,99921.34
2023-02-22T08:34:19.887Z,99917.48
2023-02-22T08:37:24.724Z,99921.05
2023-02-22T08:40:42.548Z,99918.42
2023-02-22T08:43:33.053Z,99917.20
2023-02-22T08:46:24.264Z,99913.23
2023-02-22T08:49:07.264Z,99916.45
2023-02-22T08:52:09.360Z,99918.95
2023-02-22T08:55:40.177Z,99918.74
2023-02-22T08:58:49.947Z,99916.92
2023-02-22T09:02:12.752Z,99927.61
2023-02-22T09:05:12.828Z,99930.52
2023-02-22T09:08:23.590Z,99931.70
2023-02-22T09:11:58.535Z,99927.55
2023-02-22T09:14:55.281Z,99930.24
2023-02-22T09:18:25.595Z,99937.61
2023-02-22T09:21:37.307Z,99936.80
2023-02-22T09:24:32.610Z,99937.17
2023-02-22T09:27:57.409Z,99938.95
2023-02-22T09:30:46.153Z,99938.59
2023-02-22T09:33:39.534Z,99938.34
2023-02-22T09:36:43.550Z,99940.41
2023-02-22T09:39:36.823Z,99939.94
2023-02-22T09:42:34.165Z,99938.34
2023-02-22T09:46:20.308Z,99941.20
2023-02-22T09:49:43.157Z,99940.89
2023-02-22T09:53:18.014Z,99943.25
2023-02-22T09:56:55.568Z,99945.60
2023-02-22T09:59:34.509Z,99949.59
2023-02-22T10:02:47.517Z,99948.81
2023-02-22T10:05:29.067Z,99950.63
2023-02-22T10:09:09.151Z,99951.04
2023-02-22T10:16:01.915Z,99946.67
2023-02-22T10:18:45.436Z,99947.35
2023-02-22T10:22:13.872Z,99943.90
2023-02-22T10:25:18.195Z,99946.95
2023-02-22T10:28:32.649Z,99946.90
2023-02-22T10:31:08.256Z,99943.52
2023-02-22T10:34:25.119Z,99947.13
2023-02-22T10:37:21.682Z,99946.27
2023-02-22T10:40:28.956Z,99943.73
2023-02-22T10:43:54.441Z,99941.98
2023-02-22T10:47:26.234Z,99940.75
2023-02-22T10:50:25.063Z,99940.01
2023-02-22T10:53:31.097Z,99943.08
2023-02-22T10:56:47.495Z,99933.58
2023-02-22T11:00:12.103Z,99937.67
2023-02-22T11:03:27.272Z,99935.77
2023-02-22T11:06:40.722Z,99941.77
2023-02-22T11:09:23.736Z,99942.23
2023-02-22T11:12:41.593Z,99942.20
2023-02-22T11:15:43.485Z,99946.23
2023-02-22T11:19:03.640Z,99948.40
2023-02-22T11:22:01.728Z,99957.17
2023-02-22T11:24:48.352Z,99967.23
2023-02-22T11:27:48.228Z,99971.27
2023-02-22T11:30:49.288Z,99971.62
2023-02-22T11:33:42.121Z,99973.35
2023-02-22T11:37:05.596Z,99979.45
2023-02-22T11:39:37.701Z,99981.95
2023-02-22T11:42:24.096Z,99983.30
2023-02-22T11:45:53.032Z,99986.85
2023-02-22T11:48:26.405Z,99982.42
2023-02-22T11:51:05.382Z,99982.94
2023-02-22T11:54:35.533Z,99984.20
2023-02-22T11:57:36.300Z,99982.05
2023-02-22T12:00:27.268Z,99980.56
2023-02-22T12:03:40.761Z,99982.14
2023-02-22T12:06:47.028Z,99981.36
2023-02-22T12:09:40.939Z,99975.61
2023-02-22T12:12:37.510Z,99976.56
2023-02-22T12:15:34.499Z,99976.92
2023-02-22T12:18:32.811Z,99981.73
2023-02-22T12:21:23.418Z,99980.14
2023-02-22T12:24:16.778Z,99985.34
2023-02-22T12:27:19.652Z,99986.17
2023-02-22T12:29:53.205Z,99977.86
2023-02-22T12:32:47.953Z,99980.02
2023-02-22T12:35:35.035Z,99981.75
2023-02-22T12:38:13.078Z,99983.67
2023-02-22T12:41:39.821Z,99988.29
2023-02-22T12:44:53.208Z,99981.58
2023-02-22T12:47:26.952Z,99984.77
2023-02-22T12:50:14.207Z,99986.83
2023-02-22T12:52:51.050Z,99990.05
2023-02-22T12:55:54.584Z,99991.84
2023-02-22T12:58:53.207Z,99994.23
2023-02-22T13:01:43.227Z,99994.73
2023-02-22T13:04:21.369Z,99994.66
2023-02-22T13:07:47.061Z,99991.89
2023-02-22T13:10:34.613Z,99986.77
2023-02-22T13:14:18.813Z,99983.84
2023-02-22T13:16:54.926Z,99995.45
2023-02-22T13:20:23.093Z,99996.01
2023-02-22T13:23:34.290Z,100000.95
2023-02-22T13:26:14.549Z,100006.55
2023-02-22T13:29:06.215Z,100013.95
2023-02-22T13:32:14.086Z,100014.71
2023-02-22T13:35:16.122Z,100014.89
2023-02-22T13:38:26.096Z,100018.77
2023-02-22T13:41:23.914Z,100019.27
2023-02-22T13:44:18.819Z,100015.09
2023-02-22T13:47:21.020Z,100018.95
2023-02-22T13:51:00.701Z,100028.46
2023-02-22T13:53:43.912Z,100029.73
2023-02-22T13:57:03.794Z,100034.10
2023-02-22T14:01:00.207Z,100044.33
2023-02-22T14:03:44.340Z,100047.19
2023-02-22T14:06:49.021Z,100054.92
2023-02-22T14:09:38.719Z,100055.09
2023-02-22T14:12:14.991Z,100058.16
2023-02-22T14:18:29.590Z,100067.52
2023-02-22T14:21:48.335Z,100065.34
2023-02-22T14:24:17.224Z,100063.69
2023-02-22T14:27:07.643Z,100066.14
2023-02-22T14:30:17.029Z,100074.48
2023-02-22T14:32:52.831Z,100077.02
2023-02-22T14:36:13.572Z,100076.77
2023-02-22T14:40:19.264Z,100078.50
2023-02-22T14:43:04.539Z,100078.25
2023-02-22T14:45:37.247Z,100078.00
2023-02-22T14:48:40.650Z,100079.84
2023-02-22T14:51:27.078Z,100077.86
2023-02-22T14:54:03.969Z,100077.80
2023-02-22T14:56:53.805Z,100076.58
2023-02-22T14:59:28.252Z,100087.36
2023-02-22T15:02:12.538Z,100089.35
2023-02-22T15:04:54.014Z,100094.08
2023-02-22T15:07:29.658Z,100096.17
2023-02-22T15:10:09.315Z,100100.77
2023-02-22T15:12:37.777Z,100099.38
2023-02-22T15:15:27.772Z,100102.44
2023-02-22T15:17:57.138Z,100101.84
2023-02-22T15:20:26.353Z,100110.30
2023-02-22T15:23:04.162Z,100107.04
2023-02-22T15:25:39.497Z,100112.78
2023-02-22T15:28:12.222Z,100113.58
2023-02-22T15:30:44.531Z,100117.98
2023-02-22T15:33:38.589Z,100124.34
2023-02-22T15:36:31.133Z,100124.65
2023-02-22T15:38:59.702Z,100127.25
2023-02-22T15:41:44.055Z,100128.49
2023-02-22T15:45:31.399Z,100135.61
2023-02-22T15:48:45.801Z,100134.66
2023-02-22T15:51:19.542Z,100136.70
2023-02-22T15:53:52.944Z,100138.09
2023-02-22T15:56:30.470Z,100147.66
2023-02-22T15:59:08.022Z,100145.17
2023-02-22T16:01:44.197Z,100150.48
2023-02-22T16:04:30.290Z,100152.15
2023-02-22T16:07:17.244Z,100159.58
2023-02-22T16:09:49.486Z,100160.76
2023-02-22T16:12:30.300Z,100170.09
2023-02-22T16:14:59.970Z,100176.07
2023-02-22T16:17:55.992Z,100178.31
2023-02-22T16:20:37.509Z,100176.73
2023-02-22T16:23:26.723Z,100183.96
2023-02-22T16:26:21.620Z,100189.27
2023-02-22T16:29:26.415Z,100194.00
2023-02-22T16:32:00.697Z,100196.35
2023-02-22T16:34:34.336Z,100199.35
2023-02-22T16:37:29.478Z,100199.67
2023-02-22T16:40:05.554Z,100203.94
2023-02-22T16:42:37.904Z,100206.59
2023-02-22T16:45:09.795Z,100208.31
2023-02-22T16:47:43.978Z,100212.34
2023-02-22T16:50:14.530Z,100209.66
2023-02-22T16:52:46.394Z,100215.88
2023-02-22T16:55:21.276Z,100219.98
2023-02-22T16:57:52.082Z,100221.67
2023-02-22T17:00:31.452Z,100220.52
2023-02-22T17:03:16.601Z,100223.71
2023-02-22T17:05:48.784Z,100225.77
2023-02-22T17:08:21.008Z,100227.35
2023-02-22T17:10:57.696Z,100227.45
2023-02-22T17:13:30.454Z,100229.60
2023-02-22T17:16:10.798Z,100230.65
2023-02-22T17:18:55.389Z,100240.59
2023-02-22T17:21:27.188Z,100236.14
2023-02-22T17:23:56.327Z,100238.85
2023-02-22T17:26:28.395Z,100241.68
2023-02-22T17:28:57.607Z,100246.64
2023-02-22T17:31:30.498Z,100247.49
2023-02-22T17:34:02.420Z,100248.58
2023-02-22T17:36:32.067Z,100246.42
2023-02-22T17:39:04.983Z,100249.85
2023-02-22T17:41:33.993Z,100255.16
2023-02-22T17:44:09.020Z,100256.30
2023-02-22T17:46:40.882Z,100257.64
2023-02-22T17:49:09.690Z,100262.75
2023-02-22T17:51:40.417Z,100264.41
2023-02-22T17:54:10.349Z,100264.00
2023-02-22T17:56:44.514Z,100266.73
2023-02-22T17:59:20.325Z,100273.11
2023-02-22T18:01:55.275Z,100270.38
2023-02-22T18:04:30.327Z,100272.16
2023-02-22T18:07:07.257Z,100276.17
2023-02-22T18:09:52.884Z,100277.38
2023-02-22T18:12:26.039Z,100277.64
2023-02-22T18:14:57.387Z,100279.16
2023-02-22T18:17:26.609Z,100282.23
2023-02-22T18:19:55.348Z,100281.98
2023-02-22T18:22:26.427Z,100284.16
2023-02-22T18:24:59.049Z,100285.42
2023-02-22T18:27:36.177Z,100280.85
2023-02-22T18:30:08.409Z,100290.42
2023-02-22T18:32:49.882Z,100291.08
2023-02-22T18:35:20.381Z,100295.61
2023-02-22T18:37:52.723Z,100294.02
2023-02-22T18:40:28.308Z,100296.33
2023-02-22T18:43:19.323Z,100298.84
2023-02-22T18:46:41.533Z,100297.83
2023-02-22T18:49:28.591Z,100304.67
2023-02-22T18:55:10.884Z,100310.00
2023-02-22T18:57:43.124Z,100311.45
2023-02-22T19:00:44.837Z,100315.12
2023-02-22T19:03:18.278Z,100316.92
2023-02-22T19:05:52.156Z,100323.84
2023-02-22T19:09:09.011Z,100326.84
2023-02-22T19:11:38.063Z,100332.95
2023-02-22T19:14:08.938Z,100330.00
2023-02-22T19:17:01.741Z,100338.59
2023-02-22T19:19:31.717Z,100338.02
2023-02-22T19:22:00.151Z,100340.24
2023-02-22T19:24:28.941Z,100341.08
2023-02-22T19:27:00.181Z,100346.83
2023-02-22T19:29:32.250Z,100347.11
2023-02-22T19:32:00.947Z,100348.91
2023-02-22T19:34:31.558Z,100350.59
2023-02-22T19:37:01.014Z,100351.70
2023-02-22T19:39:29.741Z,100353.34
2023-02-22T19:42:00.880Z,100357.38
2023-02-22T19:44:30.385Z,100357.89
2023-02-22T19:46:59.997Z,100362.78
2023-02-22T19:49:30.029Z,100361.46
2023-02-22T19:51:58.695Z,100363.68
2023-02-22T19:54:27.786Z,100363.84
2023-02-22T19:56:58.245Z,100366.81
2023-02-22T19:59:26.699Z,100371.63
2023-02-22T20:01:57.148Z,100375.09
2023-02-22T20:04:30.732Z,100380.91
2023-02-22T20:07:00.333Z,100387.91
2023-02-22T20:09:36.677Z,100393.27
2023-02-22T20:12:06.208Z,100396.42
2023-02-22T20:14:35.105Z,100399.39
2023-02-22T20:17:05.175Z,100404.86
2023-02-22T20:19:37.480Z,100406.52
2023-02-22T20:22:05.964Z,100408.74
2023-02-22T20:24:35.982Z,100410.92
2023-02-22T20:27:04.464Z,100414.05
2023-02-22T20:29:37.351Z,100418.85
2023-02-22T20:32:05.940Z,100423.34
2023-02-22T20:34:36.504Z,100426.80
2023-02-22T20:37:05.146Z,100431.67
2023-02-22T20:39:34.144Z,100433.48
2023-02-22T20:42:05.296Z,100438.05
2023-02-22T20:44:37.148Z,100438.94
2023-02-22T20:47:05.832Z,100442.79
2023-02-22T20:49:34.723Z,100438.98
2023-02-22T20:52:05.663Z,100442.46
2023-02-22T20:54:38.344Z,100441.06
2023-02-22T20:57:08.263Z,100447.62
2023-02-22T20:59:44.551Z,100450.79
2023-02-22T21:02:13.878Z,100450.84
2023-02-22T21:04:42.239Z,100457.00
2023-02-22T21:07:10.652Z,100457.61
2023-02-22T21:09:40.671Z,100464.45
2023-02-22T21:12:13.739Z,100465.21
2023-02-22T21:14:44.532Z,100471.55
2023-02-22T21:17:12.978Z,100475.63
2023-02-22T21:19:42.280Z,100479.29
2023-02-22T21:22:12.506Z,100485.02
2023-02-22T21:24:42.711Z,100486.92
2023-02-22T21:27:12.436Z,100484.48
2023-02-22T21:29:41.120Z,100488.97
2023-02-22T21:32:10.981Z,100491.11
2023-02-22T21:34:40.029Z,100495.89
2023-02-22T21:37:08.554Z,100497.66
2023-02-22T21:39:40.112Z,100495.38
2023-02-22T21:42:08.693Z,100496.33
2023-02-22T21:44:36.969Z,100499.79
2023-02-22T21:47:06.080Z,100502.87
2023-02-22T21:49:38.348Z,100508.17
2023-02-22T21:52:08.101Z,100510.04
2023-02-22T21:54:38.377Z,100510.91
2023-02-22T21:57:06.960Z,100517.29
2023-02-22T21:59:35.445Z,100519.31
2023-02-22T22:02:04.036Z,100521.52
2023-02-22T22:04:32.834Z,100522.80
2023-02-22T22:07:05.142Z,100524.66
2023-02-22T22:09:37.390Z,100527.96
2023-02-22T22:12:10.235Z,100528.38
2023-02-22T22:14:42.100Z,100535.15
2023-02-22T22:17:13.033Z,100538.19
2023-02-22T22:19:44.784Z,100541.10
2023-02-22T22:22:13.463Z,100544.43
2023-02-22T22:24:46.076Z,100546.52
2023-02-22T22:27:15.316Z,100544.05
2023-02-22T22:29:44.024Z,100545.23
2023-02-22T22:32:14.103Z,100542.09
2023-02-22T22:34:43.755Z,100543.66
2023-02-22T22:37:13.582Z,100545.58
2023-02-22T22:39:42.879Z,100550.88
2023-02-22T22:42:11.658Z,100548.49
2023-02-22T22:44:42.812Z,100554.08
2023-02-22T22:47:14.358Z,100555.27
2023-02-22T22:49:43.083Z,100559.81
2023-02-22T22:52:19.406Z,100561.37
2023-02-22T22:54:50.962Z,100560.58
2023-02-22T22:57:20.264Z,100562.80
2023-02-22T22:59:50.187Z,100567.12
2023-02-22T23:02:20.706Z,100573.83
2023-02-22T23:04:52.463Z,100574.05
2023-02-22T23:07:21.147Z,100577.80
2023-02-22T23:09:49.526Z,100575.73
2023-02-22T23:12:19.751Z,100581.02
2023-02-22T23:14:52.239Z,100581.81
2023-02-22T23:17:41.393Z,100588.77
2023-02-22T23:20:11.929Z,100598.45
2023-02-22T23:22:46.808Z,100595.21
2023-02-22T23:25:18.767Z,100600.56
2023-02-22T23:27:48.044Z,100604.05
2023-02-22T23:30:18.833Z,100597.55
2023-02-22T23:32:47.925Z,100601.23
2023-02-22T23:35:16.710Z,100600.54
2023-02-22T23:37:58.124Z,100601.08
2023-02-22T23:40:26.753Z,100604.69
2023-02-22T23:42:55.750Z,100607.67
2023-02-22T23:45:24.234Z,100606.33
2023-02-22T23:47:55.063Z,100608.59
2023-02-22T23:50:29.381Z,100612.25
2023-02-22T23:52:59.901Z,100609.27
2023-02-22T23:55:31.616Z,100614.59
2023-02-22T23:58:00.244Z,100615.00
